CPX783 Details

Departure: Noi Bai International Airport (VVNB)
Arrival: Incheon International Airport (RKSI)
Route: BUNBO1A NAKHA R474 LON R474 GYA B330 POU A599 PUD A593 AKARA A326 IKADI A326 MUDAL A591 AGAVO G597 GONAV GONAV2M


Current Weather Information
VVNB 250400Z 14007KT 110V180 9999 FEW022 SCT027 32/25 Q1004 NOSIG
RKSI 250400Z 23011KT CAVOK 24/12 Q1016 NOSIG